createdAt,value
2017-10-26T00:01:58.777Z,8.30
2017-10-26T00:04:24.777Z,9.00
2017-10-26T00:06:51.526Z,8.17
2017-10-26T00:09:17.487Z,9.93
2017-10-26T00:11:43.502Z,9.80
2017-10-26T00:14:09.532Z,9.10
2017-10-26T00:16:36.265Z,9.03
2017-10-26T00:19:02.222Z,10.27
2017-10-26T00:21:28.169Z,11.07
2017-10-26T00:23:54.890Z,10.70
2017-10-26T00:26:20.877Z,11.80
2017-10-26T00:28:46.892Z,12.40
2017-10-26T00:31:13.614Z,12.07
2017-10-26T00:33:39.617Z,11.40
2017-10-26T00:36:05.581Z,13.27
2017-10-26T00:38:31.564Z,14.00
2017-10-26T00:40:58.299Z,13.00
2017-10-26T00:43:24.285Z,12.37
2017-10-26T00:45:50.264Z,13.00
2017-10-26T00:48:16.226Z,13.47
2017-10-26T00:50:43.002Z,16.47
2017-10-26T00:53:08.974Z,15.67
2017-10-26T00:55:34.970Z,14.07
2017-10-26T00:58:00.915Z,15.60
2017-10-26T01:00:26.872Z,15.20
2017-10-26T01:02:52.861Z,16.27
2017-10-26T01:05:18.826Z,15.37
2017-10-26T01:07:44.800Z,16.07
2017-10-26T01:10:10.819Z,15.20
2017-10-26T01:12:36.822Z,15.67
2017-10-26T01:15:02.775Z,13.80
2017-10-26T01:17:28.804Z,14.83
2017-10-26T01:19:54.747Z,16.63
2017-10-26T01:22:20.737Z,16.03
2017-10-26T01:24:47.472Z,15.00
2017-10-26T01:27:13.442Z,14.17
2017-10-26T01:29:39.461Z,14.10
2017-10-26T01:32:06.149Z,13.40
2017-10-26T01:34:32.096Z,12.67
2017-10-26T01:36:58.077Z,13.63
2017-10-26T01:39:24.040Z,14.27
2017-10-26T01:41:50.042Z,13.70
2017-10-26T01:44:16.054Z,16.10
2017-10-26T01:46:42.030Z,15.07
2017-10-26T01:49:07.965Z,16.80
2017-10-26T01:51:34.673Z,12.83
2017-10-26T01:54:00.621Z,14.87
2017-10-26T01:56:26.561Z,17.10
2017-10-26T01:58:53.273Z,13.23
2017-10-26T02:01:19.250Z,12.90
2017-10-26T02:03:45.225Z,12.67
2017-10-26T02:06:11.190Z,12.60
2017-10-26T02:08:37.183Z,12.07
2017-10-26T02:11:03.861Z,13.47
2017-10-26T02:13:29.799Z,13.50
2017-10-26T02:15:55.782Z,12.30
2017-10-26T02:18:21.734Z,12.90
2017-10-26T02:20:48.443Z,14.53
2017-10-26T02:23:14.385Z,15.80
2017-10-26T02:25:40.424Z,12.33
2017-10-26T02:28:06.442Z,12.67
2017-10-26T02:30:44.932Z,12.87
2017-10-26T02:33:10.933Z,14.70
2017-10-26T02:35:36.910Z,12.93
2017-10-26T02:38:02.915Z,13.60
2017-10-26T02:40:28.900Z,13.17
2017-10-26T02:42:54.841Z,11.40
2017-10-26T02:45:20.792Z,12.33
2017-10-26T02:47:46.786Z,14.00
2017-10-26T02:50:12.734Z,12.20
2017-10-26T02:52:38.732Z,13.27
2017-10-26T02:55:04.684Z,12.10
2017-10-26T02:57:31.405Z,13.33
2017-10-26T02:59:57.389Z,14.63
2017-10-26T03:02:23.363Z,11.73
2017-10-26T03:04:49.307Z,11.50
2017-10-26T03:09:55.244Z,12.50
2017-10-26T03:12:21.194Z,12.93
2017-10-26T03:14:47.205Z,14.23
2017-10-26T03:17:13.977Z,12.07
2017-10-26T03:19:39.961Z,12.77
2017-10-26T03:22:05.938Z,15.40
2017-10-26T03:24:32.660Z,13.40
2017-10-26T03:26:58.634Z,13.37
2017-10-26T03:29:24.621Z,15.40
2017-10-26T03:31:50.565Z,13.77
2017-10-26T03:34:16.558Z,16.23
2017-10-26T03:36:42.541Z,14.10
2017-10-26T03:39:08.485Z,20.27
2017-10-26T03:41:34.463Z,13.77
2017-10-26T03:44:00.465Z,14.33
2017-10-26T03:46:26.426Z,14.17
2017-10-26T03:48:52.390Z,13.40
2017-10-26T03:51:18.396Z,15.47
2017-10-26T03:53:44.405Z,14.70
2017-10-26T03:56:10.382Z,15.50
2017-10-26T03:58:36.369Z,14.90
2017-10-26T04:01:02.370Z,15.87
2017-10-26T04:03:28.333Z,14.83
2017-10-26T04:05:54.310Z,16.13
2017-10-26T04:08:20.312Z,15.90
2017-10-26T04:10:46.257Z,20.33
2017-10-26T04:13:12.236Z,15.60
2017-10-26T04:15:38.213Z,15.80
2017-10-26T04:18:04.165Z,16.50
2017-10-26T04:20:30.174Z,16.43
2017-10-26T04:23:03.285Z,17.00
2017-10-26T04:25:29.377Z,19.33
2017-10-26T04:27:55.352Z,16.97
2017-10-26T04:30:21.316Z,19.07
2017-10-26T04:32:47.993Z,17.57
2017-10-26T04:35:13.993Z,16.40
2017-10-26T04:37:40.685Z,18.17
2017-10-26T04:40:06.622Z,18.97
2017-10-26T04:42:32.609Z,24.23
2017-10-26T04:44:58.565Z,21.90
2017-10-26T04:47:25.306Z,21.70
2017-10-26T04:49:51.290Z,22.57
2017-10-26T04:52:17.274Z,21.07
2017-10-26T04:54:43.249Z,19.40
2017-10-26T04:57:09.194Z,21.83
2017-10-26T04:59:42.093Z,16.60
2017-10-26T05:02:08.818Z,20.27
2017-10-26T05:04:35.501Z,23.50
2017-10-26T05:07:01.493Z,19.60
2017-10-26T05:09:28.225Z,21.60
2017-10-26T05:11:54.193Z,21.90
2017-10-26T05:14:20.926Z,18.73
2017-10-26T05:16:46.871Z,20.93
2017-10-26T05:19:12.814Z,19.23
2017-10-26T05:21:39.537Z,21.93
2017-10-26T05:24:05.512Z,21.20
2017-10-26T05:26:32.209Z,18.60
2017-10-26T05:28:58.201Z,17.90
2017-10-26T05:31:24.965Z,24.53
2017-10-26T05:33:50.928Z,19.50
2017-10-26T05:36:16.897Z,21.43
2017-10-26T05:38:42.881Z,23.40
2017-10-26T05:41:09.020Z,22.70
2017-10-26T05:43:34.958Z,20.03
2017-10-26T05:46:00.956Z,21.47
2017-10-26T05:48:26.925Z,16.20
2017-10-26T05:50:52.904Z,20.30
2017-10-26T05:53:18.846Z,21.60
2017-10-26T05:55:44.825Z,20.27
2017-10-26T05:58:10.801Z,21.70
2017-10-26T06:00:36.955Z,21.83
2017-10-26T06:03:02.953Z,21.70
2017-10-26T06:05:28.944Z,24.10
2017-10-26T06:07:56.447Z,19.93
2017-10-26T06:10:22.389Z,21.80
2017-10-26T06:12:48.380Z,19.30
2017-10-26T06:15:14.325Z,23.97
2017-10-26T06:17:40.271Z,19.50
2017-10-26T06:20:06.989Z,23.77
2017-10-26T06:22:32.932Z,21.83
2017-10-26T06:24:58.969Z,25.73
2017-10-26T06:27:24.962Z,25.70
2017-10-26T06:29:50.945Z,24.80
2017-10-26T06:32:16.935Z,28.47
2017-10-26T06:34:42.887Z,26.10
2017-10-26T06:37:08.834Z,25.57
2017-10-26T06:39:34.810Z,23.00
2017-10-26T06:42:01.554Z,23.83
2017-10-26T06:44:27.533Z,27.40
2017-10-26T06:46:53.547Z,24.20
2017-10-26T06:49:19.493Z,24.03
2017-10-26T06:51:46.178Z,26.00
2017-10-26T06:54:12.158Z,29.97
2017-10-26T06:56:38.882Z,27.83
2017-10-26T06:59:04.845Z,28.03
2017-10-26T07:01:31.612Z,26.03
2017-10-26T07:03:57.578Z,20.90
2017-10-26T07:06:23.618Z,23.10
2017-10-26T07:08:49.575Z,24.07
2017-10-26T07:11:15.513Z,24.83
2017-10-26T07:13:41.493Z,22.23
2017-10-26T07:16:08.177Z,26.40
2017-10-26T07:18:34.153Z,21.20
2017-10-26T07:21:00.120Z,22.93
2017-10-26T07:23:26.109Z,23.07
2017-10-26T07:25:52.854Z,25.90
2017-10-26T07:28:18.799Z,23.17
2017-10-26T07:30:44.777Z,24.73
2017-10-26T07:33:11.493Z,22.50
2017-10-26T07:35:37.468Z,21.13
2017-10-26T07:38:04.189Z,22.90
2017-10-26T07:40:30.162Z,21.63
2017-10-26T07:42:56.188Z,23.90
2017-10-26T07:45:22.193Z,19.93
2017-10-26T07:47:48.147Z,21.57
2017-10-26T07:50:14.174Z,22.50
2017-10-26T07:52:40.304Z,21.17
2017-10-26T07:55:06.320Z,23.30
2017-10-26T07:57:32.312Z,19.53
2017-10-26T07:59:58.996Z,18.83
2017-10-26T08:02:24.945Z,23.97
2017-10-26T08:04:50.924Z,23.27
2017-10-26T08:07:17.641Z,19.20
2017-10-26T08:09:43.622Z,20.17
2017-10-26T08:12:10.390Z,19.93
2017-10-26T08:14:36.348Z,22.07
2017-10-26T08:17:02.293Z,23.53
2017-10-26T08:19:28.285Z,21.83
2017-10-26T08:21:55.011Z,20.90
2017-10-26T08:24:20.958Z,21.90
2017-10-26T08:26:46.941Z,19.80
2017-10-26T08:29:12.926Z,20.17
2017-10-26T08:31:38.933Z,18.20
2017-10-26T08:34:04.946Z,19.33
2017-10-26T08:36:30.905Z,22.60
2017-10-26T08:38:56.857Z,20.73
2017-10-26T08:41:22.869Z,21.40
2017-10-26T08:43:48.858Z,18.13
2017-10-26T08:46:15.584Z,18.83
2017-10-26T08:48:41.620Z,18.83
2017-10-26T08:51:07.564Z,24.40
2017-10-26T08:53:33.522Z,20.90
2017-10-26T08:56:00.278Z,15.97
2017-10-26T08:58:26.954Z,17.73
2017-10-26T09:00:52.901Z,18.40
2017-10-26T09:03:18.869Z,18.50
2017-10-26T09:05:44.850Z,20.63
2017-10-26T09:08:10.860Z,23.40
2017-10-26T09:10:37.542Z,18.83
2017-10-26T09:13:03.513Z,18.27
2017-10-26T09:15:29.466Z,18.93
2017-10-26T09:17:55.458Z,18.77
2017-10-26T09:20:21.417Z,20.20
2017-10-26T09:22:47.398Z,18.67
2017-10-26T09:25:14.139Z,19.23
2017-10-26T09:27:40.968Z,19.83
2017-10-26T09:30:06.979Z,17.73
2017-10-26T09:32:32.913Z,18.77
2017-10-26T09:34:58.870Z,19.93
2017-10-26T09:37:24.850Z,19.00
2017-10-26T09:39:51.533Z,19.63
2017-10-26T09:42:17.532Z,17.90
2017-10-26T09:44:44.260Z,17.30
2017-10-26T09:47:10.295Z,16.00
2017-10-26T09:49:36.277Z,15.17
2017-10-26T09:52:03.000Z,18.17
2017-10-26T09:54:28.963Z,16.30
2017-10-26T09:56:55.701Z,15.37
2017-10-26T09:59:22.397Z,23.00
2017-10-26T10:01:48.383Z,17.50
2017-10-26T10:04:15.245Z,17.10
2017-10-26T10:06:41.957Z,16.07
2017-10-26T10:09:07.928Z,15.60
2017-10-26T10:11:33.878Z,15.73
2017-10-26T10:14:00.608Z,15.50
2017-10-26T10:16:26.589Z,18.50
2017-10-26T10:18:52.533Z,14.10
2017-10-26T10:21:18.510Z,14.03
2017-10-26T10:23:44.525Z,15.97
2017-10-26T10:26:10.603Z,15.17
2017-10-26T10:28:37.309Z,15.30
2017-10-26T10:31:03.245Z,13.10
2017-10-26T10:33:29.217Z,14.70
2017-10-26T10:35:55.172Z,16.33
2017-10-26T10:38:21.905Z,13.27
2017-10-26T10:40:47.894Z,13.17
2017-10-26T10:43:13.864Z,14.40
2017-10-26T10:45:39.905Z,13.00
2017-10-26T10:48:05.876Z,13.30
2017-10-26T10:50:32.591Z,12.33
2017-10-26T10:52:58.573Z,12.17
2017-10-26T10:55:24.549Z,11.33
2017-10-26T10:57:50.511Z,10.97
2017-10-26T11:00:22.641Z,15.07
2017-10-26T11:02:48.608Z,11.90
2017-10-26T11:05:14.601Z,11.20
2017-10-26T11:07:40.655Z,12.37
2017-10-26T11:10:06.609Z,12.03
2017-10-26T11:12:32.565Z,11.80
2017-10-26T11:14:58.580Z,11.97
2017-10-26T11:17:24.519Z,11.83
2017-10-26T11:19:50.468Z,11.80
2017-10-26T11:22:16.474Z,13.07
2017-10-26T11:24:42.452Z,12.50
2017-10-26T11:27:09.282Z,14.30
2017-10-26T11:29:35.250Z,12.90
2017-10-26T11:32:01.941Z,14.60
2017-10-26T11:34:27.903Z,14.67
2017-10-26T11:36:53.845Z,16.50
2017-10-26T11:39:19.841Z,13.63
2017-10-26T11:41:45.815Z,16.33
2017-10-26T11:44:11.863Z,15.50
2017-10-26T11:46:37.886Z,14.23
2017-10-26T11:49:03.838Z,14.57
2017-10-26T11:51:29.852Z,16.67
2017-10-26T11:53:55.785Z,15.07
2017-10-26T11:56:21.725Z,14.53
2017-10-26T11:58:47.737Z,16.47
2017-10-26T12:01:13.772Z,15.63
2017-10-26T12:03:39.829Z,15.03
2017-10-26T12:06:05.795Z,15.40
2017-10-26T12:08:31.760Z,17.30
2017-10-26T12:10:58.447Z,14.37
2017-10-26T12:13:24.409Z,16.53
2017-10-26T12:15:50.352Z,15.00
2017-10-26T12:18:16.341Z,16.33
2017-10-26T12:20:42.361Z,15.20
2017-10-26T12:23:08.350Z,14.47
2017-10-26T12:25:34.293Z,14.40
2017-10-26T12:28:00.229Z,15.87
2017-10-26T12:30:26.208Z,17.70
2017-10-26T12:32:52.156Z,15.90
2017-10-26T12:35:18.118Z,15.93
2017-10-26T12:37:44.130Z,16.93
2017-10-26T12:40:10.245Z,15.83
2017-10-26T12:42:36.234Z,15.87
2017-10-26T12:45:02.181Z,14.87
2017-10-26T12:47:28.118Z,19.63
2017-10-26T12:49:54.088Z,16.43
2017-10-26T12:52:20.034Z,18.20
2017-10-26T12:54:46.033Z,17.23
2017-10-26T12:57:12.749Z,17.30
2017-10-26T12:59:38.742Z,20.63
2017-10-26T13:02:05.502Z,18.10
2017-10-26T13:04:32.181Z,16.33
2017-10-26T13:06:58.169Z,15.47
2017-10-26T13:09:24.129Z,18.40
2017-10-26T13:11:50.070Z,17.70
2017-10-26T13:14:16.098Z,15.47
2017-10-26T13:16:42.820Z,15.17
2017-10-26T13:19:09.302Z,13.63
2017-10-26T13:21:35.294Z,14.43
2017-10-26T13:24:01.261Z,15.53
2017-10-26T13:26:27.945Z,14.60
2017-10-26T13:28:53.937Z,13.43
2017-10-26T13:31:19.884Z,13.20
2017-10-26T13:33:46.655Z,12.43
2017-10-26T13:36:12.649Z,13.90
2017-10-26T13:38:38.598Z,12.40
2017-10-26T13:41:05.366Z,13.03
2017-10-26T13:43:32.109Z,13.83
2017-10-26T13:45:58.812Z,11.40
2017-10-26T13:48:24.765Z,13.13
2017-10-26T13:50:50.753Z,12.10
2017-10-26T13:53:17.449Z,13.00
2017-10-26T13:55:43.530Z,11.40
2017-10-26T13:58:10.420Z,12.37
2017-10-26T14:00:36.397Z,11.30
2017-10-26T14:03:03.097Z,13.53
2017-10-26T14:05:29.077Z,12.97
2017-10-26T14:07:55.013Z,13.30
2017-10-26T14:10:20.974Z,12.93
2017-10-26T14:12:47.816Z,12.60
2017-10-26T14:15:13.792Z,14.67
2017-10-26T14:17:39.933Z,14.40
2017-10-26T14:20:05.906Z,14.47
2017-10-26T14:22:31.853Z,14.03
2017-10-26T14:24:57.825Z,14.47
2017-10-26T14:27:24.574Z,13.60
2017-10-26T14:29:51.261Z,14.70
2017-10-26T14:32:17.270Z,14.57
2017-10-26T14:34:44.004Z,13.40
2017-10-26T14:37:10.033Z,16.57
2017-10-26T14:39:36.049Z,14.70
2017-10-26T14:42:01.993Z,13.90
2017-10-26T14:44:27.940Z,13.30
2017-10-26T14:46:53.916Z,17.47
2017-10-26T14:49:19.866Z,15.17
2017-10-26T14:51:45.901Z,12.23
2017-10-26T14:54:11.961Z,14.97
2017-10-26T14:56:37.956Z,14.37
2017-10-26T14:59:03.932Z,13.50
2017-10-26T15:01:29.885Z,15.93
2017-10-26T15:03:55.890Z,14.53
2017-10-26T15:06:21.837Z,16.20
2017-10-26T15:08:47.807Z,15.77
2017-10-26T15:11:13.825Z,15.57
2017-10-26T15:13:39.821Z,14.10
2017-10-26T15:16:05.907Z,15.73
2017-10-26T15:18:31.886Z,14.97
2017-10-26T15:20:57.869Z,14.40
2017-10-26T15:23:23.813Z,15.70
2017-10-26T15:25:49.782Z,16.23
2017-10-26T15:28:16.566Z,16.10
2017-10-26T15:30:42.587Z,16.40
2017-10-26T15:33:08.537Z,16.27
2017-10-26T15:35:34.522Z,19.90
2017-10-26T15:38:00.472Z,16.97
2017-10-26T15:40:27.181Z,18.90
2017-10-26T15:42:53.169Z,16.00
2017-10-26T15:45:19.909Z,16.27
2017-10-26T15:47:46.668Z,20.30
2017-10-26T15:50:13.461Z,17.53
2017-10-26T15:52:39.844Z,20.47
2017-10-26T15:55:05.853Z,16.57
2017-10-26T15:57:31.804Z,17.87
2017-10-26T15:59:57.786Z,17.00
2017-10-26T16:02:24.510Z,18.40
2017-10-26T16:04:50.460Z,18.30
2017-10-26T16:07:17.230Z,21.23
2017-10-26T16:09:43.966Z,18.60
2017-10-26T16:12:10.721Z,16.23
2017-10-26T16:14:37.447Z,18.73
2017-10-26T16:17:03.393Z,17.00
2017-10-26T16:19:29.370Z,17.50
2017-10-26T16:21:55.358Z,18.67
2017-10-26T16:24:21.306Z,15.87
2017-10-26T16:26:47.339Z,16.53
2017-10-26T16:29:13.314Z,15.83
2017-10-26T16:31:39.388Z,18.70
2017-10-26T16:34:05.373Z,14.87
2017-10-26T16:36:32.061Z,18.20
2017-10-26T16:38:58.005Z,17.80
2017-10-26T16:41:23.993Z,15.77
2017-10-26T16:43:50.682Z,18.67
2017-10-26T16:46:16.684Z,16.63
2017-10-26T16:48:43.433Z,15.50
2017-10-26T16:51:09.478Z,17.00
2017-10-26T16:53:35.434Z,16.60
2017-10-26T16:56:01.418Z,16.47
2017-10-26T16:58:28.120Z,15.93
2017-10-26T17:00:54.277Z,14.43
2017-10-26T17:03:20.243Z,14.17
2017-10-26T17:05:46.255Z,15.73
2017-10-26T17:08:12.297Z,15.93
2017-10-26T17:10:38.245Z,19.53
2017-10-26T17:13:04.195Z,14.67
2017-10-26T17:15:30.178Z,15.87
2017-10-26T17:17:56.137Z,15.80
2017-10-26T17:20:22.112Z,16.53
2017-10-26T17:22:48.061Z,18.00
2017-10-26T17:25:14.813Z,16.40
2017-10-26T17:27:41.553Z,15.70
2017-10-26T17:30:07.497Z,16.70
2017-10-26T17:32:34.219Z,18.53
2017-10-26T17:35:00.169Z,18.13
2017-10-26T17:37:26.165Z,16.80
2017-10-26T17:39:52.105Z,19.90
2017-10-26T17:42:18.074Z,17.30
2017-10-26T17:44:44.114Z,18.30
2017-10-26T17:47:10.494Z,17.30
2017-10-26T17:49:36.510Z,19.50
2017-10-26T17:52:03.221Z,17.90
2017-10-26T17:54:29.205Z,21.53
2017-10-26T17:56:55.897Z,18.60
2017-10-26T17:59:21.837Z,17.33
2017-10-26T18:01:47.849Z,17.77
2017-10-26T18:04:13.805Z,18.90
2017-10-26T18:06:39.907Z,17.87
2017-10-26T18:09:05.965Z,16.60
2017-10-26T18:11:31.945Z,18.23
2017-10-26T18:13:57.921Z,18.73
2017-10-26T18:16:24.616Z,17.33
2017-10-26T18:18:50.634Z,18.50
2017-10-26T18:21:16.604Z,22.33
2017-10-26T18:23:42.638Z,18.40
2017-10-26T18:26:08.580Z,17.37
2017-10-26T18:28:34.520Z,18.10
2017-10-26T18:31:00.492Z,17.30
2017-10-26T18:33:27.177Z,18.73
2017-10-26T18:35:53.192Z,17.03
2017-10-26T18:38:19.181Z,16.10
2017-10-26T18:40:45.206Z,17.00
2017-10-26T18:43:11.183Z,16.87
2017-10-26T18:45:37.865Z,14.97
2017-10-26T18:48:03.832Z,15.33
2017-10-26T18:50:29.820Z,14.37
2017-10-26T18:52:55.793Z,15.73
2017-10-26T18:55:21.740Z,15.33
2017-10-26T18:57:47.729Z,15.93
2017-10-26T19:00:13.725Z,23.00
2017-10-26T19:02:39.745Z,14.73
2017-10-26T19:05:05.709Z,12.37
2017-10-26T19:07:31.662Z,13.10
2017-10-26T19:09:58.384Z,15.90
2017-10-26T19:12:24.326Z,15.70
2017-10-26T19:14:50.314Z,14.07
2017-10-26T19:17:16.286Z,15.00
2017-10-26T19:19:42.285Z,14.07
2017-10-26T19:22:08.282Z,14.37
2017-10-26T19:24:34.964Z,13.70
2017-10-26T19:27:00.945Z,14.93
2017-10-26T19:29:27.656Z,14.90
2017-10-26T19:31:53.614Z,12.07
2017-10-26T19:34:19.601Z,12.43
2017-10-26T19:36:46.364Z,14.50
2017-10-26T19:39:13.097Z,12.67
2017-10-26T19:41:39.849Z,12.87
2017-10-26T19:44:06.561Z,15.13
2017-10-26T19:46:32.571Z,13.20
2017-10-26T19:48:58.525Z,13.90
2017-10-26T19:51:24.466Z,14.70
2017-10-26T19:53:50.452Z,15.70
2017-10-26T19:56:17.146Z,13.33
2017-10-26T19:58:43.140Z,13.40
2017-10-26T20:01:09.954Z,14.30
2017-10-26T20:03:35.904Z,13.73
2017-10-26T20:06:01.859Z,12.37
2017-10-26T20:08:27.834Z,14.63
2017-10-26T20:10:53.787Z,13.20
2017-10-26T20:13:19.802Z,13.37
2017-10-26T20:15:45.940Z,12.50
2017-10-26T20:18:11.938Z,12.87
2017-10-26T20:20:37.894Z,12.77
2017-10-26T20:23:04.656Z,12.97
2017-10-26T20:25:30.593Z,11.10
2017-10-26T20:27:56.533Z,14.00
2017-10-26T20:30:22.534Z,11.93
2017-10-26T20:32:48.530Z,12.03
2017-10-26T20:35:14.485Z,13.97
2017-10-26T20:37:40.486Z,11.40
2017-10-26T20:40:06.470Z,10.47
2017-10-26T20:42:33.902Z,11.50
2017-10-26T20:44:59.853Z,11.73
2017-10-26T20:47:25.850Z,13.47
2017-10-26T20:49:58.090Z,12.10
2017-10-26T20:52:30.190Z,11.03
2017-10-26T20:55:03.021Z,13.00
2017-10-26T20:57:35.067Z,11.67
2017-10-26T21:00:07.301Z,11.03
2017-10-26T21:02:39.376Z,10.37
2017-10-26T21:05:11.449Z,12.70
2017-10-26T21:07:43.535Z,10.00
2017-10-26T21:10:15.618Z,12.00
2017-10-26T21:13:02.009Z,12.27
2017-10-26T21:15:27.968Z,11.30
2017-10-26T21:17:53.921Z,11.63
2017-10-26T21:20:20.029Z,11.67
2017-10-26T21:22:46.014Z,11.90
2017-10-26T21:25:12.019Z,10.53
2017-10-26T21:27:38.001Z,10.80
2017-10-26T21:30:04.780Z,12.57
2017-10-26T21:32:30.724Z,12.47
2017-10-26T21:34:56.669Z,10.90
2017-10-26T21:37:22.647Z,11.20
2017-10-26T21:39:48.650Z,10.07
2017-10-26T21:42:14.659Z,10.00
2017-10-26T21:44:40.662Z,10.07
2017-10-26T21:47:07.413Z,9.90
2017-10-26T21:49:33.370Z,9.43
2017-10-26T21:52:00.089Z,9.90
2017-10-26T21:54:26.076Z,8.73
2017-10-26T21:56:52.017Z,9.33
2017-10-26T21:59:18.718Z,9.27
2017-10-26T22:01:44.705Z,9.57
2017-10-26T22:04:10.731Z,11.13
2017-10-26T22:06:36.697Z,10.10
2017-10-26T22:09:02.692Z,9.40
2017-10-26T22:11:29.394Z,10.57
2017-10-26T22:13:55.338Z,9.57
2017-10-26T22:16:21.316Z,9.10
2017-10-26T22:18:48.018Z,9.73
2017-10-26T22:21:14.021Z,8.93
2017-10-26T22:23:40.045Z,8.40
2017-10-26T22:26:06.729Z,9.00
2017-10-26T22:28:32.728Z,10.07
2017-10-26T22:30:59.469Z,10.27
2017-10-26T22:33:25.432Z,8.90
2017-10-26T22:35:51.421Z,12.97
2017-10-26T22:38:17.432Z,8.77
2017-10-26T22:40:43.422Z,10.67
2017-10-26T22:43:10.209Z,11.43
2017-10-26T22:45:36.201Z,10.83
2017-10-26T22:48:02.897Z,10.90
2017-10-26T22:50:28.854Z,9.30
2017-10-26T22:52:54.833Z,10.37
2017-10-26T22:55:21.569Z,11.67
2017-10-26T22:57:47.566Z,10.93
2017-10-26T23:00:13.577Z,9.93
2017-10-26T23:02:40.342Z,10.63
2017-10-26T23:05:06.334Z,9.70
2017-10-26T23:07:32.305Z,10.10
2017-10-26T23:09:58.286Z,10.77
2017-10-26T23:12:24.245Z,10.00
2017-10-26T23:14:50.267Z,10.43
2017-10-26T23:17:16.258Z,12.00
2017-10-26T23:19:42.301Z,11.47
2017-10-26T23:22:08.301Z,11.63
2017-10-26T23:24:34.257Z,10.67
2017-10-26T23:27:00.984Z,9.80
2017-10-26T23:29:27.067Z,10.73
2017-10-26T23:31:53.035Z,10.47
2017-10-26T23:34:19.020Z,11.17
2017-10-26T23:36:45.044Z,11.23
2017-10-26T23:39:11.784Z,11.27
2017-10-26T23:41:38.556Z,11.70
2017-10-26T23:44:05.254Z,11.27
2017-10-26T23:46:31.247Z,9.90
2017-10-26T23:48:57.960Z,10.70
2017-10-26T23:51:23.967Z,10.57
2017-10-26T23:53:49.943Z,12.00
2017-10-26T23:56:15.927Z,10.60
2017-10-26T23:58:41.986Z,11.33
